Time;durP1;ratioP1;P1;durP2;ratioP2;P2;SDS_P1;SDS_P2;PMS_P1;PMS_P2;Temp;Humidity;BMP_temperature;BMP_pressure;BME280_temperature;BME280_humidity;BME280_pressure;Samples;Min_cycle;Max_cycle;Signal;HPM_P1;HPM_P2
2022/12/10 00:01:30;;;;;;;3.92;2.40;;;-2.50;99.90;;;;;;5046609;28;20056;-77
2022/12/10 00:03:57;;;;;;;4.93;2.50;;;-2.50;99.90;;;;;;5029313;28;20060;-74
2022/12/10 00:06:27;;;;;;;5.53;2.67;;;-2.60;99.90;;;;;;5062573;28;20099;-74
2022/12/10 00:08:54;;;;;;;4.60;2.65;;;-2.60;99.90;;;;;;5046412;28;20052;-74
2022/12/10 00:11:21;;;;;;;3.72;2.28;;;-2.60;99.90;;;;;;5063796;28;20074;-74
2022/12/10 00:13:48;;;;;;;2.78;2.05;;;-2.60;99.90;;;;;;5061358;28;20052;-75
2022/12/10 00:16:16;;;;;;;3.47;2.33;;;-2.60;99.90;;;;;;5046006;28;20539;-75
2022/12/10 00:18:43;;;;;;;1.65;1.40;;;-2.60;99.90;;;;;;5061895;28;20067;-74
2022/12/10 00:21:12;;;;;;;3.15;2.00;;;-2.60;99.90;;;;;;5044764;28;20052;-75
2022/12/10 00:23:39;;;;;;;3.67;2.33;;;-2.60;99.90;;;;;;5062182;28;20052;-75
2022/12/10 00:26:17;;;;;;;3.95;2.08;;;-2.60;99.90;;;;;;5025792;28;20504;-75
2022/12/10 00:28:44;;;;;;;3.95;2.80;;;-2.60;99.90;;;;;;5050401;28;20080;-75
2022/12/10 00:31:15;;;;;;;2.70;1.90;;;-2.70;99.90;;;;;;5053977;28;20058;-74
2022/12/10 00:33:43;;;;;;;3.33;2.05;;;-2.60;99.90;;;;;;5044050;28;20484;-75
2022/12/10 00:36:12;;;;;;;3.80;2.10;;;-2.60;99.90;;;;;;5051075;28;20052;-75
2022/12/10 00:38:39;;;;;;;3.38;2.10;;;-2.60;99.90;;;;;;5050961;28;20140;-75
2022/12/10 00:41:09;;;;;;;4.43;2.30;;;-2.50;99.90;;;;;;5057138;28;20063;-75
2022/12/10 00:43:36;;;;;;;3.55;2.78;;;-2.50;99.90;;;;;;5045398;28;20048;-75
2022/12/10 00:46:02;;;;;;;3.90;2.10;;;-2.50;99.90;;;;;;5058015;28;20140;-74
2022/12/10 00:48:29;;;;;;;3.80;2.40;;;-2.40;99.90;;;;;;5049223;28;20057;-74
2022/12/10 00:51:04;;;;;;;3.10;2.25;;;-2.40;99.90;;;;;;5048829;28;20088;-75
2022/12/10 00:53:31;;;;;;;4.82;2.40;;;-2.40;99.90;;;;;;5042155;28;20217;-75
2022/12/10 00:55:58;;;;;;;3.63;2.38;;;-2.40;99.90;;;;;;5039294;28;20252;-75
2022/12/10 00:58:29;;;;;;;4.10;2.47;;;-2.40;99.90;;;;;;5042361;28;20076;-74
2022/12/10 01:01:22;;;;;;;3.45;2.20;;;-2.40;99.90;;;;;;5041041;28;20497;-75
2022/12/10 01:03:50;;;;;;;3.30;1.73;;;-2.40;99.90;;;;;;5051585;28;20048;-74
2022/12/10 01:06:18;;;;;;;5.15;1.90;;;-2.40;99.90;;;;;;5032539;28;20053;-75
2022/12/10 01:08:45;;;;;;;4.22;2.20;;;-2.40;99.90;;;;;;5038590;28;20095;-74
2022/12/10 01:11:14;;;;;;;3.25;1.98;;;-2.40;99.90;;;;;;5033566;28;20586;-74
2022/12/10 01:13:41;;;;;;;2.88;2.05;;;-2.40;99.90;;;;;;5045439;28;20051;-74
2022/12/10 01:16:08;;;;;;;3.88;1.90;;;-2.40;99.90;;;;;;5039122;28;20079;-74
2022/12/10 01:18:35;;;;;;;6.03;2.20;;;-2.40;99.90;;;;;;5038235;28;20052;-74
2022/12/10 01:21:07;;;;;;;3.72;2.00;;;-2.50;99.90;;;;;;5038772;28;20060;-75
2022/12/10 01:23:35;;;;;;;2.85;1.77;;;-2.50;99.90;;;;;;5056476;28;20171;-75
2022/12/10 01:26:03;;;;;;;2.53;1.80;;;-2.50;99.90;;;;;;5038773;28;20048;-75
2022/12/10 01:28:31;;;;;;;2.95;1.90;;;-2.50;99.90;;;;;;5033540;28;20055;-74
2022/12/10 01:31:05;;;;;;;2.38;1.63;;;-2.60;99.90;;;;;;5038547;28;20611;-74
2022/12/10 01:33:32;;;;;;;1.63;1.25;;;-2.60;99.90;;;;;;5041836;28;20554;-74
2022/12/10 01:36:08;;;;;;;3.80;2.08;;;-2.60;99.90;;;;;;5054926;28;20049;-74
2022/12/10 01:38:34;;;;;;;2.42;1.75;;;-2.60;99.90;;;;;;5048177;28;20136;-74
2022/12/10 01:41:01;;;;;;;4.50;1.80;;;-2.60;99.90;;;;;;5039075;28;20099;-74
2022/12/10 01:43:48;;;;;;;3.38;1.90;;;-2.60;99.90;;;;;;5049952;28;20050;-74
2022/12/10 01:46:17;;;;;;;3.08;1.80;;;-2.70;99.90;;;;;;5052886;28;20085;-74
2022/12/10 01:48:43;;;;;;;4.43;1.95;;;-2.70;99.90;;;;;;5063469;28;20124;-74
2022/12/10 01:51:11;;;;;;;2.50;1.63;;;-2.70;99.90;;;;;;5052936;28;20052;-77
2022/12/10 01:53:38;;;;;;;2.20;1.73;;;-2.70;99.90;;;;;;5035755;28;20127;-74
2022/12/10 01:56:05;;;;;;;2.78;1.75;;;-2.70;99.90;;;;;;5040726;28;20109;-74
2022/12/10 01:58:32;;;;;;;3.65;1.90;;;-2.80;99.90;;;;;;5036590;28;20052;-74
2022/12/10 02:01:08;;;;;;;3.45;2.15;;;-2.80;99.90;;;;;;5039635;28;20128;-74
2022/12/10 02:04:04;;;;;;;5.90;2.45;;;-2.80;99.90;;;;;;5044055;28;20045;-74
2022/12/10 02:06:39;;;;;;;2.65;1.92;;;-2.80;99.90;;;;;;5052817;28;20500;-74
2022/12/10 02:09:19;;;;;;;3.72;2.38;;;-2.80;99.90;;;;;;5041417;28;20049;-74
2022/12/10 02:11:59;;;;;;;2.83;1.80;;;-2.80;99.90;;;;;;5050849;28;20167;-74
2022/12/10 02:14:38;;;;;;;2.63;1.45;;;-2.80;99.90;;;;;;5052894;28;20311;-74
2022/12/10 02:17:32;;;;;;;2.70;1.75;;;-2.90;99.90;;;;;;5052710;28;20053;-75
2022/12/10 02:20:02;;;;;;;;;;;-2.90;99.90;;;;;;5026273;28;20095;-75
2022/12/10 02:22:33;;;;;;;3.28;1.70;;;-2.90;99.90;;;;;;5049092;28;19939;-74
2022/12/10 02:25:00;;;;;;;2.33;1.67;;;-2.90;99.90;;;;;;5040741;28;20155;-74
2022/12/10 02:27:46;;;;;;;2.65;1.50;;;-2.90;99.90;;;;;;5050995;28;20044;-74
2022/12/10 02:30:12;;;;;;;1.83;1.35;;;-2.90;99.90;;;;;;5037575;28;20076;-74
2022/12/10 02:32:41;;;;;;;2.80;1.77;;;-2.90;99.90;;;;;;5045470;28;20037;-74
2022/12/10 02:35:29;;;;;;;3.05;1.83;;;-2.90;99.90;;;;;;5038594;28;20053;-74
2022/12/10 02:38:02;;;;;;;2.47;1.60;;;-2.90;99.90;;;;;;5035516;28;20126;-74
2022/12/10 02:40:32;;;;;;;3.47;2.00;;;-3.00;99.90;;;;;;5048951;28;20070;-74
2022/12/10 02:42:59;;;;;;;2.85;1.90;;;-3.00;99.90;;;;;;5041924;28;20504;-74
2022/12/10 02:45:27;;;;;;;2.75;1.85;;;-3.00;99.90;;;;;;5043246;28;20050;-74
2022/12/10 02:47:57;;;;;;;3.35;1.63;;;-3.00;99.90;;;;;;5052354;28;20139;-74
2022/12/10 02:50:24;;;;;;;2.92;1.67;;;-3.00;99.90;;;;;;5040480;28;20060;-74
2022/12/10 02:52:51;;;;;;;3.35;1.90;;;-3.10;99.90;;;;;;5055022;28;20053;-74
2022/12/10 02:55:19;;;;;;;2.20;1.40;;;-3.10;99.90;;;;;;5053185;28;20057;-74
2022/12/10 02:58:13;;;;;;;3.30;1.95;;;-3.10;99.90;;;;;;5053043;28;20053;-74
2022/12/10 03:01:21;;;;;;;3.17;2.00;;;-3.10;99.90;;;;;;5049439;28;20053;-74
2022/12/10 03:04:00;;;;;;;2.67;2.08;;;-3.10;99.90;;;;;;5055791;28;20048;-74
2022/12/10 03:06:39;;;;;;;2.95;2.05;;;-3.10;99.90;;;;;;5050742;28;20044;-74
2022/12/10 03:09:17;;;;;;;2.50;1.63;;;-3.10;99.90;;;;;;5040709;28;20170;-74
2022/12/10 03:11:44;;;;;;;2.35;1.60;;;-3.10;99.90;;;;;;5044423;28;20049;-73
2022/12/10 03:14:19;;;;;;;2.15;1.48;;;-3.10;99.90;;;;;;5042199;28;20070;-74
2022/12/10 03:16:49;;;;;;;2.75;1.70;;;-3.10;99.90;;;;;;5055242;28;20052;-74
2022/12/10 03:19:18;;;;;;;2.83;1.83;;;-3.10;99.90;;;;;;5041075;28;20045;-74
2022/12/10 03:21:46;;;;;;;3.45;1.73;;;-3.10;99.90;;;;;;5058904;28;20105;-74
2022/12/10 03:24:12;;;;;;;2.40;1.42;;;-3.10;99.90;;;;;;5055586;28;20036;-74
2022/12/10 03:26:39;;;;;;;2.92;1.95;;;-3.10;99.90;;;;;;5054558;28;20045;-74
2022/12/10 03:29:13;;;;;;;2.38;1.50;;;-3.10;99.90;;;;;;5053086;28;20044;-74
2022/12/10 03:31:40;;;;;;;3.63;2.00;;;-3.10;99.90;;;;;;5056583;28;20059;-74
2022/12/10 03:34:07;;;;;;;2.35;1.85;;;-3.10;99.90;;;;;;5059640;28;20080;-73
2022/12/10 03:36:34;;;;;;;2.75;1.60;;;-3.20;99.90;;;;;;5051895;28;20078;-74
2022/12/10 03:39:01;;;;;;;2.92;1.52;;;-3.10;99.90;;;;;;5043963;28;20044;-74
2022/12/10 03:41:27;;;;;;;2.47;1.65;;;-3.10;99.90;;;;;;5057875;28;20049;-75
2022/12/10 03:43:56;;;;;;;2.60;1.77;;;-3.10;99.90;;;;;;5054541;28;20061;-74
2022/12/10 03:46:23;;;;;;;3.13;2.03;;;-3.10;99.90;;;;;;5056112;28;20040;-74
2022/12/10 03:48:50;;;;;;;2.40;1.45;;;-3.20;99.90;;;;;;5057694;28;20127;-74
2022/12/10 03:51:17;;;;;;;3.78;1.98;;;-3.10;99.90;;;;;;5059000;28;20048;-74
2022/12/10 03:53:45;;;;;;;2.83;1.70;;;-3.20;99.90;;;;;;5058764;28;20123;-74
2022/12/10 03:56:12;;;;;;;2.90;1.60;;;-3.20;99.90;;;;;;5044549;28;20127;-74
2022/12/10 03:58:38;;;;;;;1.98;1.58;;;-3.20;99.90;;;;;;5041506;28;20116;-74
2022/12/10 04:01:05;;;;;;;2.90;1.55;;;-3.20;99.90;;;;;;5060312;28;20056;-74
2022/12/10 04:03:38;;;;;;;2.53;2.00;;;-3.20;99.90;;;;;;5042456;28;20071;-74
2022/12/10 04:06:12;;;;;;;2.13;1.40;;;-3.20;99.90;;;;;;5053529;28;20148;-74
2022/12/10 04:08:39;;;;;;;2.35;1.65;;;-3.30;99.90;;;;;;5044299;28;20075;-74
2022/12/10 04:11:09;;;;;;;2.88;1.92;;;-3.30;99.90;;;;;;5058482;28;20057;-74
2022/12/10 04:16:28;;;;;;;2.50;1.60;;;-3.30;99.90;;;;;;5058016;28;20166;-74
2022/12/10 04:18:57;;;;;;;2.20;1.20;;;-3.30;99.90;;;;;;5051561;28;20049;-75
2022/12/10 04:27:00;;;;;;;3.67;1.50;;;-3.30;99.90;;;;;;5066315;28;20082;-74
2022/12/10 04:29:28;;;;;;;1.83;1.35;;;-3.30;99.90;;;;;;5065775;28;20049;-74
2022/12/10 04:31:55;;;;;;;3.72;1.88;;;-3.40;99.90;;;;;;5066924;28;20104;-74
2022/12/10 04:34:22;;;;;;;1.98;1.40;;;-3.30;99.90;;;;;;5049190;28;20059;-74
2022/12/10 04:36:49;;;;;;;2.85;1.88;;;-3.30;99.90;;;;;;5060162;28;20080;-74
2022/12/10 04:39:16;;;;;;;3.00;1.80;;;-3.30;99.90;;;;;;5049961;28;20056;-74
2022/12/10 04:41:44;;;;;;;3.58;2.05;;;-3.40;99.90;;;;;;5065365;28;20072;-75
2022/12/10 04:44:11;;;;;;;4.30;2.35;;;-3.30;99.90;;;;;;5049177;28;20076;-76
2022/12/10 04:46:38;;;;;;;3.10;1.95;;;-3.30;99.90;;;;;;5029897;28;20052;-74
2022/12/10 04:49:05;;;;;;;2.60;1.70;;;-3.30;99.90;;;;;;5046233;28;20045;-74
2022/12/10 04:51:32;;;;;;;2.83;1.90;;;-3.30;99.90;;;;;;5040463;28;20439;-74
2022/12/10 04:53:59;;;;;;;4.90;2.25;;;-3.30;99.90;;;;;;5048839;28;21032;-75
2022/12/10 04:56:26;;;;;;;2.17;1.58;;;-3.30;99.90;;;;;;5046068;28;20045;-75
2022/12/10 04:58:55;;;;;;;2.53;1.67;;;-3.40;99.90;;;;;;5061732;28;20045;-75
2022/12/10 05:01:22;;;;;;;3.95;2.13;;;-3.40;99.90;;;;;;5064876;28;20054;-74
2022/12/10 05:03:49;;;;;;;3.08;1.75;;;-3.40;99.90;;;;;;5045538;28;20045;-75
2022/12/10 05:06:16;;;;;;;2.58;1.75;;;-3.40;99.90;;;;;;5065656;28;20163;-74
2022/12/10 05:08:43;;;;;;;2.63;1.73;;;-3.40;99.90;;;;;;5049301;28;20136;-74
2022/12/10 05:11:17;;;;;;;2.88;1.77;;;-3.40;99.90;;;;;;5031581;28;20056;-74
2022/12/10 05:13:44;;;;;;;2.13;1.80;;;-3.40;99.90;;;;;;5024104;28;20486;-74
2022/12/10 05:16:12;;;;;;;3.20;2.30;;;-3.40;99.90;;;;;;5032873;28;20660;-75
2022/12/10 05:18:39;;;;;;;2.85;1.95;;;-3.40;99.90;;;;;;5048671;28;20588;-75
2022/12/10 05:21:09;;;;;;;3.65;2.10;;;-3.40;99.90;;;;;;5048393;28;20155;-75
2022/12/10 05:23:37;;;;;;;2.67;2.10;;;-3.40;99.90;;;;;;5057196;28;20090;-75
2022/12/10 05:26:16;;;;;;;4.20;2.22;;;-3.50;99.90;;;;;;5048850;28;20408;-75
2022/12/10 05:28:45;;;;;;;3.97;2.35;;;-3.50;99.90;;;;;;5067471;28;20044;-75
2022/12/10 05:31:17;;;;;;;2.97;1.88;;;-3.50;99.90;;;;;;5062859;28;20070;-74
2022/12/10 05:33:43;;;;;;;3.47;2.17;;;-3.50;99.90;;;;;;5064383;28;20147;-76
2022/12/10 05:36:12;;;;;;;2.72;1.73;;;-3.50;99.90;;;;;;5059996;28;20047;-74
2022/12/10 05:38:38;;;;;;;2.55;1.80;;;-3.50;99.90;;;;;;5040139;28;20132;-74
2022/12/10 05:41:09;;;;;;;2.95;1.90;;;-3.50;99.90;;;;;;5045397;28;20106;-74
2022/12/10 05:43:36;;;;;;;2.17;1.70;;;-3.50;99.90;;;;;;5028033;28;20080;-74
2022/12/10 05:46:04;;;;;;;2.90;1.80;;;-3.50;99.90;;;;;;5048174;28;20055;-75
2022/12/10 05:48:31;;;;;;;2.53;1.58;;;-3.50;99.90;;;;;;5045068;28;20059;-74
2022/12/10 05:50:58;;;;;;;2.63;1.63;;;-3.60;99.90;;;;;;5025369;28;20056;-74
2022/12/10 05:53:25;;;;;;;3.40;1.92;;;-3.60;99.90;;;;;;5043837;28;20547;-75
2022/12/10 05:55:59;;;;;;;3.60;1.70;;;-3.60;99.90;;;;;;5027821;28;20066;-74
2022/12/10 05:58:27;;;;;;;2.67;2.25;;;-3.60;99.90;;;;;;5060698;28;20048;-75
2022/12/10 06:00:55;;;;;;;1.80;1.50;;;-3.60;99.90;;;;;;5044060;28;20044;-75
2022/12/10 06:03:21;;;;;;;2.50;1.73;;;-3.60;99.90;;;;;;5060625;28;20055;-75
2022/12/10 06:05:48;;;;;;;2.60;1.50;;;-3.60;99.90;;;;;;5039205;28;20076;-74
2022/12/10 06:08:15;;;;;;;2.45;1.90;;;-3.60;99.90;;;;;;5046915;28;20056;-74
2022/12/10 06:10:42;;;;;;;2.13;1.40;;;-3.60;99.90;;;;;;5055210;28;20052;-75
2022/12/10 06:13:09;;;;;;;3.45;1.77;;;-3.60;99.90;;;;;;5054776;28;20164;-75
2022/12/10 06:15:38;;;;;;;2.78;1.50;;;-3.70;99.90;;;;;;5054594;28;20080;-75
2022/12/10 06:18:05;;;;;;;2.75;1.58;;;-3.70;99.90;;;;;;5052817;28;20074;-74
2022/12/10 06:20:32;;;;;;;2.63;1.40;;;-3.60;99.90;;;;;;5056532;28;20438;-74
2022/12/10 06:22:59;;;;;;;3.08;2.00;;;-3.70;99.90;;;;;;5052891;28;20219;-75
2022/12/10 06:25:25;;;;;;;2.58;1.50;;;-3.70;99.90;;;;;;5050182;28;20120;-75
2022/12/10 06:27:52;;;;;;;2.63;1.60;;;-3.70;99.90;;;;;;5042330;28;20063;-75
2022/12/10 06:30:19;;;;;;;1.85;1.20;;;-3.70;99.90;;;;;;5061585;28;20128;-75
2022/12/10 06:32:45;;;;;;;3.55;1.73;;;-3.70;99.90;;;;;;5059578;28;21193;-74
2022/12/10 06:35:12;;;;;;;1.75;1.40;;;-3.80;99.90;;;;;;5026218;28;20049;-74
2022/12/10 06:37:39;;;;;;;3.10;1.80;;;-3.80;99.90;;;;;;5041109;28;20749;-75
2022/12/10 06:40:06;;;;;;;2.97;1.60;;;-3.70;99.90;;;;;;5043467;28;20059;-75
2022/12/10 06:42:33;;;;;;;2.05;1.63;;;-3.70;99.90;;;;;;5026049;28;20199;-75
2022/12/10 06:45:00;;;;;;;2.95;1.45;;;-3.80;99.90;;;;;;5043675;28;20151;-75
2022/12/10 06:47:27;;;;;;;1.48;1.17;;;-3.80;99.90;;;;;;5040444;28;20052;-74
2022/12/10 06:49:54;;;;;;;2.53;1.50;;;-3.80;99.90;;;;;;5040624;28;20056;-74
2022/12/10 06:52:20;;;;;;;3.88;2.05;;;-3.80;99.90;;;;;;5023016;28;20080;-74
2022/12/10 06:54:48;;;;;;;3.00;1.67;;;-3.70;99.90;;;;;;5037149;28;20132;-74
2022/12/10 06:57:15;;;;;;;3.83;2.50;;;-3.70;99.90;;;;;;5070892;28;20156;-75
2022/12/10 06:59:41;;;;;;;2.15;1.40;;;-3.80;99.90;;;;;;5051223;28;20108;-74
2022/12/10 07:02:12;;;;;;;1.90;1.30;;;-3.80;99.90;;;;;;5067643;28;20044;-75
2022/12/10 07:04:39;;;;;;;2.63;1.65;;;-3.80;99.90;;;;;;5057172;28;20044;-74
2022/12/10 07:07:06;;;;;;;2.65;1.40;;;-3.80;99.90;;;;;;5061787;28;20047;-75
2022/12/10 07:09:35;;;;;;;2.80;1.40;;;-3.80;99.90;;;;;;5045410;28;20117;-75
2022/12/10 07:12:02;;;;;;;3.67;1.70;;;-3.80;99.90;;;;;;5061461;28;20612;-75
2022/12/10 07:14:29;;;;;;;3.55;2.80;;;-3.70;99.90;;;;;;5060254;28;20461;-74
2022/12/10 07:16:57;;;;;;;2.50;1.38;;;-3.80;99.90;;;;;;5063141;28;20052;-75
2022/12/10 07:19:24;;;;;;;2.22;1.50;;;-3.70;99.90;;;;;;5060648;28;20084;-75
2022/12/10 07:21:51;;;;;;;3.08;1.63;;;-3.70;99.90;;;;;;5061399;28;20048;-74
2022/12/10 07:24:18;;;;;;;2.60;1.70;;;-3.80;99.90;;;;;;5061952;28;20060;-74
2022/12/10 07:26:46;;;;;;;2.88;1.85;;;-3.80;99.90;;;;;;5044831;28;20053;-75
2022/12/10 07:29:17;;;;;;;2.53;1.55;;;-3.80;99.90;;;;;;5039674;28;20480;-75
2022/12/10 07:31:44;;;;;;;3.38;2.05;;;-3.80;99.90;;;;;;5043868;28;20159;-75
2022/12/10 07:34:12;;;;;;;3.10;1.90;;;-3.70;99.90;;;;;;5060717;28;20074;-74
2022/12/10 07:36:39;;;;;;;2.88;1.42;;;-3.70;99.90;;;;;;5059934;28;20147;-75
2022/12/10 07:39:09;;;;;;;2.22;1.52;;;-3.80;99.90;;;;;;5060772;28;20499;-75
2022/12/10 07:41:36;;;;;;;2.03;1.50;;;-3.80;99.90;;;;;;5027920;28;20048;-75
2022/12/10 07:44:06;;;;;;;2.60;1.90;;;-3.80;99.90;;;;;;5060156;28;20080;-75
2022/12/10 07:46:33;;;;;;;2.50;1.50;;;-3.80;99.90;;;;;;5061492;28;20044;-74
2022/12/10 07:49:01;;;;;;;2.85;1.80;;;-3.90;99.90;;;;;;5043729;28;20049;-75
2022/12/10 07:51:27;;;;;;;2.35;1.50;;;-3.90;99.90;;;;;;5042474;28;20541;-75
2022/12/10 07:53:54;;;;;;;3.97;2.17;;;-3.90;99.90;;;;;;5040266;28;20118;-75
2022/12/10 07:56:22;;;;;;;2.95;1.98;;;-3.90;99.90;;;;;;5041238;28;20419;-75
2022/12/10 07:58:49;;;;;;;3.30;1.88;;;-3.90;99.90;;;;;;5045001;28;20372;-75
2022/12/10 08:01:19;;;;;;;3.65;2.80;;;-3.90;99.90;;;;;;5049308;28;20052;-75
2022/12/10 08:03:46;;;;;;;2.13;1.67;;;-3.90;99.90;;;;;;5068414;28;20588;-75
2022/12/10 08:06:14;;;;;;;2.83;1.60;;;-3.90;99.90;;;;;;5060224;28;20079;-75
2022/12/10 08:08:42;;;;;;;2.40;1.60;;;-3.90;99.90;;;;;;5042419;28;20049;-75
2022/12/10 08:11:09;;;;;;;3.28;1.48;;;-3.90;99.90;;;;;;5059959;28;20080;-75
2022/12/10 08:13:36;;;;;;;3.33;1.70;;;-3.90;99.90;;;;;;5040460;28;20296;-75
2022/12/10 08:16:06;;;;;;;2.10;1.45;;;-3.90;99.90;;;;;;5043926;28;20052;-75
2022/12/10 08:18:33;;;;;;;2.42;1.83;;;-3.80;99.90;;;;;;5059968;28;20156;-75
2022/12/10 08:21:08;;;;;;;1.88;1.23;;;-3.80;99.90;;;;;;5026174;28;20048;-75
2022/12/10 08:23:34;;;;;;;2.22;1.35;;;-3.80;99.90;;;;;;5040946;28;20484;-75
2022/12/10 08:26:15;;;;;;;2.75;1.42;;;-3.70;99.90;;;;;;5053132;28;20139;-74
2022/12/10 08:28:42;;;;;;;2.15;1.55;;;-3.70;99.90;;;;;;5057640;28;20052;-75
2022/12/10 08:31:10;;;;;;;2.25;1.58;;;-3.70;99.90;;;;;;5030037;28;20070;-75
2022/12/10 08:33:37;;;;;;;2.58;1.50;;;-3.60;99.90;;;;;;5043092;28;20053;-74
2022/12/10 08:36:05;;;;;;;3.08;1.70;;;-3.60;99.90;;;;;;5061835;28;20135;-75
2022/12/10 08:38:32;;;;;;;1.40;1.17;;;-3.60;99.90;;;;;;5028569;28;20056;-75
2022/12/10 08:40:59;;;;;;;3.42;1.90;;;-3.50;99.90;;;;;;5061193;28;20057;-75
2022/12/10 08:43:25;;;;;;;3.10;1.77;;;-3.50;99.90;;;;;;5047189;28;20476;-75
2022/12/10 08:45:54;;;;;;;3.22;1.70;;;-3.50;99.90;;;;;;5040322;28;20056;-75
2022/12/10 08:48:20;;;;;;;2.25;1.52;;;-3.40;99.90;;;;;;5067463;28;20055;-76
2022/12/10 08:50:47;;;;;;;2.30;1.90;;;-3.30;99.90;;;;;;5052411;28;20403;-75
2022/12/10 08:53:14;;;;;;;2.72;2.03;;;-3.30;99.90;;;;;;5051743;28;20135;-76
2022/12/10 08:55:41;;;;;;;2.85;1.83;;;-3.20;99.90;;;;;;5056482;28;20161;-75
2022/12/10 08:58:15;;;;;;;2.58;1.52;;;-3.10;99.90;;;;;;5057124;28;20148;-76
2022/12/10 09:00:42;;;;;;;3.45;2.00;;;-3.10;99.90;;;;;;5043054;28;20154;-76
2022/12/10 09:03:09;;;;;;;2.95;1.83;;;-3.10;99.90;;;;;;5041421;28;20056;-75
2022/12/10 09:05:36;;;;;;;2.25;1.60;;;-3.00;99.90;;;;;;5042861;28;20143;-75
2022/12/10 09:08:03;;;;;;;2.13;1.58;;;-2.90;99.90;;;;;;5058062;28;20201;-76
2022/12/10 09:10:29;;;;;;;3.10;1.83;;;-2.90;99.90;;;;;;5055784;28;20123;-75
2022/12/10 09:12:56;;;;;;;2.28;1.70;;;-2.90;99.90;;;;;;5052002;28;20172;-76
2022/12/10 09:15:29;;;;;;;3.55;2.20;;;-2.80;99.90;;;;;;5057341;28;20139;-76
2022/12/10 09:17:56;;;;;;;2.28;1.42;;;-2.80;99.90;;;;;;5040858;28;20145;-76
2022/12/10 09:20:23;;;;;;;2.42;1.50;;;-2.70;99.90;;;;;;5059179;28;20040;-77
2022/12/10 09:22:50;;;;;;;2.53;1.92;;;-2.60;99.90;;;;;;5025264;28;20087;-77
2022/12/10 09:25:17;;;;;;;3.00;1.75;;;-2.60;99.90;;;;;;5044170;28;20097;-78
2022/12/10 09:27:44;;;;;;;2.60;1.65;;;-2.50;99.90;;;;;;5057215;28;20044;-77
2022/12/10 09:30:12;;;;;;;2.95;2.00;;;-2.40;99.90;;;;;;5037708;28;20080;-77
2022/12/10 09:32:39;;;;;;;2.53;1.80;;;-2.40;99.90;;;;;;5035522;28;20072;-78
2022/12/10 09:35:07;;;;;;;3.33;1.55;;;-2.30;99.90;;;;;;5057767;28;20394;-77
2022/12/10 09:37:33;;;;;;;2.67;2.00;;;-2.20;99.90;;;;;;5041442;28;20052;-77
2022/12/10 09:40:00;;;;;;;1.73;1.13;;;-2.20;99.90;;;;;;5058577;28;20563;-78
2022/12/10 09:42:46;;;;;;;2.88;1.95;;;-2.10;99.90;;;;;;5056629;28;20048;-77
2022/12/10 09:45:27;;;;;;;2.30;1.45;;;-2.00;99.90;;;;;;5050452;28;20044;-77
2022/12/10 09:48:15;;;;;;;4.00;2.40;;;-2.00;99.90;;;;;;5052637;28;20110;-78
2022/12/10 09:50:48;;;;;;;2.05;1.38;;;-1.90;99.90;;;;;;5056090;28;20466;-77
2022/12/10 09:53:16;;;;;;;1.75;1.48;;;-1.80;99.90;;;;;;5059833;28;20528;-77
2022/12/10 09:55:45;;;;;;;2.20;1.80;;;-1.70;99.90;;;;;;5058514;28;20516;-78
2022/12/10 09:58:21;;;;;;;2.45;1.67;;;-1.60;99.90;;;;;;5035813;28;20057;-77
2022/12/10 10:01:00;;;;;;;2.43;1.67;;;-1.50;99.90;;;;;;5051221;28;20134;-76
2022/12/10 10:03:27;;;;;;;1.80;1.30;;;-1.40;99.90;;;;;;5053593;28;20306;-76
2022/12/10 10:05:54;;;;;;;2.15;1.42;;;-1.30;99.90;;;;;;5039958;28;20055;-75
2022/12/10 10:08:21;;;;;;;2.30;1.52;;;-1.30;99.90;;;;;;5058514;28;20407;-76
2022/12/10 10:10:48;;;;;;;3.63;1.90;;;-1.20;99.90;;;;;;5071365;28;21373;-76
2022/12/10 10:13:17;;;;;;;3.30;2.08;;;-1.00;99.90;;;;;;5065010;28;20067;-76
2022/12/10 10:15:44;;;;;;;1.98;1.52;;;-0.80;99.90;;;;;;5056378;28;20388;-76
2022/12/10 10:18:32;;;;;;;2.72;1.45;;;-0.50;99.90;;;;;;5060907;28;20047;-76
2022/12/10 10:21:00;;;;;;;2.70;2.10;;;-0.40;99.90;;;;;;5053148;28;20177;-76
2022/12/10 10:23:27;;;;;;;2.30;1.70;;;-0.10;99.90;;;;;;5059882;28;20932;-76
2022/12/10 10:25:54;;;;;;;2.28;1.63;;;0.00;99.90;;;;;;5051472;28;20052;-76
2022/12/10 10:28:22;;;;;;;3.28;2.35;;;0.30;99.90;;;;;;5050129;28;20063;-76
2022/12/10 10:30:50;;;;;;;3.45;2.10;;;0.40;99.90;;;;;;5049840;28;20148;-76
2022/12/10 10:33:17;;;;;;;3.22;1.70;;;0.50;99.90;;;;;;5048094;28;20462;-76
2022/12/10 10:35:46;;;;;;;2.03;1.50;;;0.60;99.90;;;;;;5046919;28;20164;-76
2022/12/10 10:38:20;;;;;;;3.05;1.67;;;0.70;99.90;;;;;;5038033;28;20045;-75
2022/12/10 10:40:51;;;;;;;4.28;1.92;;;0.80;99.90;;;;;;5056000;28;20051;-76
2022/12/10 10:43:20;;;;;;;4.85;2.05;;;0.90;99.90;;;;;;5055080;28;20446;-76
2022/12/10 10:45:59;;;;;;;3.10;2.15;;;1.00;99.90;;;;;;5057974;28;20044;-75
2022/12/10 10:48:27;;;;;;;3.35;2.13;;;1.10;99.90;;;;;;5057790;28;20052;-76
2022/12/10 10:50:55;;;;;;;3.22;2.10;;;1.30;99.90;;;;;;5040325;28;20407;-75
2022/12/10 10:53:30;;;;;;;4.40;2.42;;;1.40;99.90;;;;;;5057203;28;20049;-75
2022/12/10 10:56:08;;;;;;;3.15;2.38;;;1.40;99.90;;;;;;5057672;28;20140;-75
2022/12/10 10:58:36;;;;;;;2.42;1.73;;;1.60;99.90;;;;;;5055925;28;20044;-79
2022/12/10 11:01:05;;;;;;;2.63;1.83;;;1.60;99.90;;;;;;5041447;28;20052;-82
2022/12/10 11:03:33;;;;;;;2.63;2.05;;;1.70;99.90;;;;;;5040859;28;20056;-81
2022/12/10 11:06:00;;;;;;;3.42;2.00;;;1.80;99.90;;;;;;5040840;28;20343;-81
2022/12/10 11:08:29;;;;;;;3.60;2.42;;;1.90;99.90;;;;;;5038531;28;20059;-80
2022/12/10 11:11:16;;;;;;;2.95;1.77;;;2.00;99.90;;;;;;5058211;28;20163;-77
2022/12/10 11:13:43;;;;;;;3.60;2.25;;;2.00;99.90;;;;;;5055197;28;20080;-76
2022/12/10 11:16:18;;;;;;;3.10;1.83;;;2.10;99.90;;;;;;5057568;28;20368;-79
2022/12/10 11:19:02;;;;;;;4.22;2.40;;;2.10;99.90;;;;;;5040982;28;20086;-77
2022/12/10 11:21:32;;;;;;;3.05;2.22;;;2.20;99.90;;;;;;5056364;28;20417;-79
2022/12/10 11:24:00;;;;;;;2.72;1.80;;;2.30;99.90;;;;;;5040877;28;20062;-77
2022/12/10 11:26:49;;;;;;;2.30;1.75;;;2.30;99.90;;;;;;5057389;28;20052;-76
2022/12/10 11:29:28;;;;;;;2.75;1.83;;;2.40;99.90;;;;;;5057729;28;20043;-79
2022/12/10 11:32:16;;;;;;;2.40;1.77;;;2.50;99.90;;;;;;5057877;28;20136;-80
2022/12/10 11:35:07;;;;;;;2.70;1.90;;;2.50;99.90;;;;;;5056650;28;20149;-79
2022/12/10 11:38:00;;;;;;;4.57;1.95;;;2.50;99.90;;;;;;5024921;28;20083;-81
2022/12/10 11:40:29;;;;;;;4.57;2.17;;;2.60;99.90;;;;;;5051576;28;20053;-79
2022/12/10 11:43:17;;;;;;;2.15;1.52;;;2.70;99.90;;;;;;5054972;28;20059;-79
2022/12/10 11:46:19;;;;;;;3.35;2.20;;;2.70;99.90;;;;;;5059687;28;20055;-79
2022/12/10 11:48:49;;;;;;;3.17;2.03;;;2.80;99.90;;;;;;5042840;28;20489;-80
2022/12/10 11:51:43;;;;;;;3.42;2.20;;;2.80;99.90;;;;;;5058001;28;20052;-79
2022/12/10 11:54:30;;;;;;;2.65;2.17;;;2.90;99.90;;;;;;5053239;28;20155;-77
2022/12/10 11:57:03;;;;;;;5.05;2.53;;;2.90;99.90;;;;;;5046273;28;20168;-79
2022/12/10 11:59:44;;;;;;;3.67;2.55;;;3.00;99.90;;;;;;5043081;28;20132;-79
2022/12/10 12:02:33;;;;;;;4.35;2.55;;;3.20;99.90;;;;;;5067009;28;20066;-79
2022/12/10 12:05:19;;;;;;;3.65;2.45;;;3.30;99.90;;;;;;5075319;28;20085;-79
2022/12/10 12:08:11;;;;;;;2.38;1.80;;;3.40;99.90;;;;;;5058994;28;20051;-79
2022/12/10 12:10:53;;;;;;;2.63;2.25;;;3.60;99.90;;;;;;5062936;28;20306;-76
2022/12/10 12:13:31;;;;;;;2.15;1.50;;;3.70;99.90;;;;;;5056619;28;20052;-76
2022/12/10 12:16:06;;;;;;;1.80;1.35;;;3.90;99.90;;;;;;5075928;28;20056;-77
2022/12/10 12:18:36;;;;;;;2.30;1.70;;;4.10;99.90;;;;;;5058148;28;20055;-77
2022/12/10 12:21:14;;;;;;;4.40;2.13;;;4.20;99.90;;;;;;5059787;28;20124;-77
2022/12/10 12:23:59;;;;;;;2.45;1.63;;;4.30;99.90;;;;;;5024553;28;20066;-77
2022/12/10 12:26:34;;;;;;;2.00;1.42;;;4.40;99.90;;;;;;5021056;28;20059;-77
2022/12/10 12:29:22;;;;;;;2.20;1.42;;;4.50;99.90;;;;;;5036578;28;20048;-77
2022/12/10 12:32:04;;;;;;;2.10;1.80;;;4.60;99.90;;;;;;5052824;28;20175;-77
2022/12/10 12:34:50;;;;;;;2.58;1.70;;;4.80;99.90;;;;;;5062185;28;20600;-78
2022/12/10 12:37:49;;;;;;;2.30;1.73;;;5.00;99.90;;;;;;5040221;28;20318;-77
2022/12/10 12:40:39;;;;;;;2.20;1.35;;;5.20;99.90;;;;;;5040154;28;20049;-77
2022/12/10 12:43:35;;;;;;;2.15;1.35;;;5.50;99.90;;;;;;5054303;28;20048;-76
2022/12/10 12:46:04;;;;;;;2.33;1.40;;;5.60;99.90;;;;;;5041822;28;20511;-76
2022/12/10 12:48:40;;;;;;;1.58;1.25;;;5.80;99.90;;;;;;5039765;28;20043;-76
2022/12/10 12:51:27;;;;;;;2.83;1.88;;;6.00;99.90;;;;;;5054347;28;20495;-77
2022/12/10 12:53:54;;;;;;;3.30;2.50;;;6.10;99.90;;;;;;5062606;28;20057;-76
2022/12/10 12:56:58;;;;;;;2.80;1.98;;;6.30;99.90;;;;;;5056715;28;20048;-76
2022/12/10 12:59:41;;;;;;;;;;;6.40;99.90;;;;;;5010894;28;20133;-77
2022/12/10 13:02:49;;;;;;;2.40;1.88;;;6.30;99.90;;;;;;5036430;28;20011;-76
2022/12/10 13:05:29;;;;;;;1.90;1.38;;;6.30;99.90;;;;;;5059404;28;20513;-77
2022/12/10 13:08:18;;;;;;;1.98;1.40;;;6.40;99.90;;;;;;5038134;28;20318;-77
2022/12/10 13:10:48;;;;;;;2.10;1.40;;;6.50;99.90;;;;;;5056409;28;20059;-77
2022/12/10 13:13:27;;;;;;;2.13;1.48;;;6.50;99.90;;;;;;5048470;28;20060;-77
2022/12/10 13:15:54;;;;;;;1.90;1.38;;;6.50;99.90;;;;;;5054372;28;20106;-77
2022/12/10 13:18:44;;;;;;;1.77;1.25;;;6.60;99.90;;;;;;5047849;28;20053;-77
2022/12/10 13:21:30;;;;;;;2.20;1.52;;;6.70;99.90;;;;;;5047529;28;20049;-76